Isim, Russia
Current Conditions -  °F | °C
As of 4:30 PM on Thursday 30 Oct 2014 (Local Time) from UACP Reporting Station
Overcast Overcast  
Wind Chill: 26°   Ceiling: 2000
Heat Index: 36°   Visibility: 6mi
Dew Point: 32°   Wind: 16mph
Humidity: 87%   Direction: 230°SW
Pressure: 30.15"   Gusts: NA
Location:  56.1°N, 69.43°E
Report Text: UACP 301130Z 23007MPS 9999 OVC020 02/00 Q1021 R23/2/1054 NOSIGRMK QFE753/1004
Loading
Personal Weather Stations






























Interactive Weather Map
Tropical Storm Tracking
New forecast layout! Learn more

10-Day Weather Forecast

Advertisements
Track Severe Weather on mobile